Latest Weather Observations for Wilsons Promontory

IDV60801

Issued at 10:31 pm EST Tuesday 30 June 2015 (issued every 30 minutes, with the page automatically refreshed every 10 minutes)

About weather observations | Map of weather stations | Latest weather observations for VIC | Other Formats
Station Details ID: 085096 Name: WILSONS PROMONTORY LIGHTHOUSE Lat: -39.13 Lon: 146.42 Height: 95.0 m
Data from the previous 72 hours. | See also: Recent months at Wilsons Promontory
Date/Time
EST
Temp
°C
App
Temp
°C
Dew
Point
Rel
Hum
%
Delta-T
°C
Wind Press
QNH
hPa
Press
MSL
hPa
Rain
since 9 am
mm
Dir
 
Spd
km/h
Gust
km/h
Spd
kts
Gust
kts
30/10:30pm 10.5 6.2 9.4 93 0.5 W 22 32 12 17 1026.2 - 0.6
30/10:00pm 10.8 7.1 10.0 95 0.4 W 20 28 11 15 1026.2 - 0.6
30/09:30pm 10.9 6.5 10.3 96 0.3 W 24 32 13 17 1026.3 - 0.6
30/09:00pm 10.8 6.4 10.5 98 0.2 W 24 33 13 18 1026.1 1026.3 0.6
30/08:30pm 10.7 6.0 10.5 99 0.1 W 26 41 14 22 1025.9 - 0.6
30/08:00pm 10.8 6.8 10.6 99 0.1 WNW 22 33 12 18 1026.1 - 0.6
30/07:30pm 10.7 5.5 10.4 98 0.2 W 28 39 15 21 1026.0 - 0.4
30/07:00pm 10.8 6.0 10.3 97 0.3 W 26 39 14 21 1025.9 - 0.2
30/06:30pm 10.9 5.7 10.4 97 0.3 W 28 39 15 21 1025.8 - 0.2
30/06:00pm 11.0 6.2 10.2 95 0.4 W 26 37 14 20 1025.7 1025.9 0.0
30/05:30pm 11.1 6.6 9.9 92 0.6 W 24 35 13 19 1025.5 - 0.0
30/05:00pm 11.2 5.9 9.8 91 0.7 NW 28 39 15 21 1025.3 - 0.0
30/04:30pm 11.4 6.9 10.1 92 0.7 W 24 35 13 19 1025.4 - 0.0
30/04:00pm 11.2 6.7 10.1 93 0.6 W 24 39 13 21 1025.2 - 0.0
30/03:32pm 11.1 5.5 10.2 94 0.5 W 30 48 16 26 1025.0 - 0.0
30/03:30pm 11.1 5.1 10.2 94 0.5 W 32 48 17 26 1025.0 - 0.0
30/03:28pm 11.1 5.5 10.2 94 0.5 W 30 48 16 26 1025.0 - 0.0
30/03:00pm 11.2 5.7 10.4 95 0.4 W 30 43 16 23 1025.0 1025.2 0.0
30/02:30pm 11.1 5.5 10.2 94 0.5 WNW 30 39 16 21 1025.0 - 0.0
30/02:00pm 11.1 6.6 10.0 93 0.6 W 24 37 13 20 1025.2 - 0.0
30/01:30pm 11.1 5.3 9.4 89 0.9 W 30 46 16 25 1025.2 - 0.0
30/01:02pm 11.1 4.5 8.7 85 1.2 WNW 33 52 18 28 1025.4 - 0.0
30/01:00pm 11.3 4.4 8.7 84 1.3 NW 35 48 19 26 1025.4 - 0.0
30/12:30pm 11.4 5.0 8.4 82 1.5 WNW 32 41 17 22 1026.0 - 0.0
30/12:07pm 11.4 4.4 8.3 81 1.5 WNW 35 56 19 30 1026.1 - 0.0
30/11:30am 11.3 6.0 8.3 82 1.5 WNW 26 39 14 21 1026.8 - 0.0
30/11:00am 11.2 5.9 8.6 84 1.3 NW 26 41 14 22 1027.3 - 0.0
30/10:46am 11.0 5.4 8.6 85 1.2 NW 28 46 15 25 1027.4 - 0.0
30/10:30am 10.8 5.9 8.6 86 1.1 WNW 24 41 13 22 1027.5 - 0.0
30/10:13am 10.6 4.6 8.5 87 1.0 WNW 30 52 16 28 1027.6 - 0.0
30/10:00am 10.5 6.0 8.6 88 0.9 NW 22 39 12 21 1027.7 - 0.0
30/09:30am 10.5 4.1 8.6 88 0.9 NW 32 46 17 25 1027.5 - 0.0
30/08:30am 10.9 6.6 9.3 90 0.8 WNW 22 32 12 17 1027.4 - 0.0
30/08:00am 10.9 7.2 9.5 91 0.7 NW 19 26 10 14 1027.3 - 0.0
30/07:30am 10.9 7.0 9.5 91 0.7 NW 20 30 11 16 1027.3 - 0.0
30/07:00am 11.1 6.9 9.7 91 0.7 WNW 22 30 12 16 1027.2 - 0.0
30/06:30am 11.2 7.9 9.6 90 0.8 W 17 22 9 12 1027.1 - 0.0
30/06:00am 11.3 8.0 9.4 88 1.0 WNW 17 24 9 13 1026.9 1027.1 0.0
30/05:30am 11.4 7.9 8.8 84 1.3 WNW 17 22 9 12 1026.8 - 0.0
30/05:00am 11.7 9.3 8.6 81 1.5 W 11 20 6 11 1026.7 - 0.0
30/04:30am 11.4 8.6 8.4 82 1.5 W 13 20 7 11 1026.9 - 0.0
30/04:00am 11.5 8.4 8.7 83 1.4 W 15 24 8 13 1026.8 - 0.0
30/03:30am 11.4 7.6 9.1 86 1.2 W 19 26 10 14 1027.2 - 0.0
30/03:00am 11.5 8.4 8.7 83 1.4 W 15 22 8 12 1027.2 1027.3 0.0
30/02:30am 11.4 8.2 8.4 82 1.5 WSW 15 26 8 14 1027.4 - 0.0
30/02:00am 11.3 7.3 8.2 81 1.5 W 19 26 10 14 1027.6 - 0.0
30/01:30am 11.1 7.0 8.0 81 1.5 WNW 19 30 10 16 1027.7 - 0.0
30/01:00am 11.1 6.0 7.8 80 1.6 W 24 33 13 18 1027.9 - 0.0
30/12:30am 11.0 6.7 8.0 82 1.5 W 20 30 11 16 1028.2 - 0.0
30/12:00am 11.0 6.4 8.0 82 1.5 W 22 30 12 16 1028.4 1028.5 0.0
 
Date/Time
EST
Temp
°C
App
Temp
°C
Dew
Point
Rel
Hum
%
Delta-T
°C
Wind Press
QNH
hPa
Press
MSL
hPa
Rain
since 9 am
mm
Dir
 
Spd
km/h
Gust
km/h
Spd
kts
Gust
kts
29/11:30pm 11.0 7.0 8.2 83 1.4 W 19 30 10 16 1028.4 - 0.0
29/11:00pm 11.2 7.1 8.8 85 1.2 W 20 30 11 16 1028.4 - 0.0
29/10:30pm 11.4 8.3 9.0 85 1.2 WSW 15 24 8 13 1028.4 - 0.0
29/10:00pm 11.4 7.8 8.4 82 1.5 W 17 24 9 13 1028.7 - 0.0
29/09:30pm 11.5 5.7 8.0 79 1.7 W 28 39 15 21 1028.8 - 0.0
29/09:00pm 11.5 6.2 8.4 81 1.5 W 26 39 14 21 1029.1 1029.2 0.0
29/08:30pm 11.6 7.2 8.8 83 1.4 W 22 33 12 18 1029.3 - 0.0
29/08:00pm 11.5 7.7 9.1 85 1.2 W 19 30 10 16 1029.6 - 0.0
29/07:30pm 11.5 7.8 9.4 87 1.1 WSW 19 39 10 21 1029.4 - 0.0
29/07:00pm 11.5 6.9 9.6 88 1.0 W 24 35 13 19 1029.3 - 0.0
29/06:30pm 11.8 8.3 10.2 90 0.8 W 19 33 10 18 1029.0 - 0.0
29/06:00pm 11.6 6.8 10.2 91 0.7 W 26 35 14 19 1029.3 1029.4 0.0
29/05:30pm 11.5 6.3 10.2 92 0.7 WNW 28 39 15 21 1029.2 - 0.0
29/05:00pm 11.8 6.2 10.0 89 0.9 W 30 41 16 22 1029.1 - 0.0
29/04:30pm 11.8 6.7 10.5 92 0.7 W 28 43 15 23 1029.2 - 0.0
29/04:00pm 12.1 5.6 10.3 89 0.9 W 35 54 19 29 1029.2 - 0.0
29/03:35pm 12.2 6.0 10.1 87 1.1 W 33 56 18 30 1029.1 - 0.0
29/03:30pm 12.3 6.1 10.2 87 1.1 W 33 44 18 24 1029.2 - 0.0
29/03:00pm 12.2 7.7 10.1 87 1.1 WNW 24 41 13 22 1029.4 1029.5 0.0
29/02:43pm 12.1 6.1 10.0 87 1.1 W 32 50 17 27 1029.2 - 0.0
29/02:30pm 12.2 6.0 10.1 87 1.1 W 33 46 18 25 1029.2 - 0.0
29/02:24pm 12.2 5.6 9.9 86 1.2 W 35 54 19 29 1029.2 - 0.0
29/02:00pm 12.4 4.4 10.3 87 1.1 W 43 57 23 31 1029.0 - 0.0
29/01:30pm 12.6 5.8 10.7 88 1.0 W 37 56 20 30 1029.2 - 0.0
29/01:08pm 12.6 5.4 10.5 87 1.1 W 39 57 21 31 1029.6 - 0.0
29/01:00pm 12.7 5.1 10.4 86 1.2 W 41 54 22 29 1029.5 - 0.0
29/12:41pm 12.8 6.0 10.5 86 1.2 W 37 56 20 30 1029.6 - 0.0
29/12:30pm 12.7 5.1 10.4 86 1.2 W 41 52 22 28 1030.0 - 0.0
29/12:02pm 12.8 7.7 10.7 87 1.1 W 28 46 15 25 1030.3 - 0.0
29/12:00pm 12.8 7.7 10.7 87 1.1 W 28 43 15 23 1030.4 1030.5 0.0
29/11:30am 12.6 6.1 10.3 86 1.2 W 35 54 19 29 1030.7 - 0.0
29/11:27am 12.5 6.0 10.2 86 1.2 W 35 54 19 29 1030.7 - 0.0
29/11:00am 12.8 5.5 10.2 84 1.3 W 39 54 21 29 1030.8 - 0.0
29/10:30am 12.6 5.9 9.6 82 1.5 W 35 50 19 27 1031.1 - 0.0
29/10:21am 12.9 6.8 9.9 82 1.5 W 32 50 17 27 1031.2 - 0.0
29/10:00am 12.5 7.5 9.7 83 1.4 W 26 41 14 22 1031.6 - 0.0
29/09:30am 12.4 6.6 9.4 82 1.5 W 30 43 16 23 1031.5 - 0.0
29/09:00am 12.4 6.5 9.2 81 1.6 W 30 43 16 23 1031.5 1031.6 0.0
29/08:44am 12.2 6.7 9.2 82 1.5 W 28 46 15 25 1031.6 - 0.0
29/08:30am 12.1 6.6 9.1 82 1.5 W 28 41 15 22 1031.6 - 0.0
29/08:00am 12.1 7.5 9.7 85 1.2 W 24 41 13 22 1031.2 - 0.0
29/07:30am 12.1 6.4 9.7 85 1.2 W 30 43 16 23 1030.9 - 0.0
29/07:00am 11.9 6.0 10.3 90 0.8 W 32 44 17 24 1030.6 - 0.0
29/06:30am 11.8 5.4 10.7 93 0.6 W 35 46 19 25 1030.3 - 0.0
29/06:05am 11.5 5.5 10.7 95 0.4 W 33 54 18 29 1030.3 - 0.0
29/06:00am 11.5 5.5 10.9 96 0.3 W 33 48 18 26 1030.2 1030.3 0.0
29/05:30am 11.6 5.7 11.3 98 0.2 W 33 48 18 26 1030.3 - 0.0
29/05:00am 11.4 5.1 11.1 98 0.2 W 35 48 19 26 1030.4 - 0.0
29/04:30am 11.5 6.1 10.9 96 0.3 W 30 48 16 26 1030.4 - 0.0
29/04:00am 11.7 5.9 10.9 95 0.4 W 32 50 17 27 1030.0 - 0.0
29/03:30am 11.5 6.4 10.6 94 0.5 WNW 28 46 15 25 1030.4 - 0.0
29/03:27am 11.5 6.4 10.6 94 0.5 WNW 28 46 15 25 1030.4 - 0.0
29/03:00am 11.5 5.6 10.4 93 0.6 WNW 32 44 17 24 1030.5 1030.6 0.0
29/02:30am 11.7 4.5 10.4 92 0.7 W 39 54 21 29 1030.2 - 0.0
29/02:02am 11.8 4.6 10.5 92 0.7 WNW 39 57 21 31 1030.4 - 0.0
29/02:00am 11.7 4.1 10.4 92 0.7 WNW 41 57 22 31 1030.4 - 0.0
29/01:30am 11.8 4.9 10.4 91 0.7 W 37 56 20 30 1030.4 - 0.0
29/01:28am 11.8 4.9 10.4 91 0.7 W 37 56 20 30 1030.4 - 0.0
29/01:00am 11.8 4.2 10.5 92 0.7 W 41 57 22 31 1030.3 - 0.0
29/12:32am 11.7 4.8 10.4 92 0.7 W 37 56 20 30 1030.5 - 0.0
29/12:30am 11.8 4.6 10.5 92 0.7 W 39 56 21 30 1030.4 - 0.0
29/12:00am 11.6 4.3 10.3 92 0.7 W 39 57 21 31 1030.9 1031.0 0.0
 
Date/Time
EST
Temp
°C
App
Temp
°C
Dew
Point
Rel
Hum
%
Delta-T
°C
Wind Press
QNH
hPa
Press
MSL
hPa
Rain
since 9 am
mm
Dir
 
Spd
km/h
Gust
km/h
Spd
kts
Gust
kts
28/11:42pm 11.7 4.0 10.3 91 0.7 W 41 59 22 32 1030.8 - 0.0
28/11:30pm 11.7 4.8 10.3 91 0.7 W 37 54 20 29 1030.8 - 0.0
28/11:00pm 11.6 4.7 10.2 91 0.7 W 37 56 20 30 1031.1 - 0.0
28/10:42pm 11.7 4.4 10.1 90 0.8 W 39 57 21 31 1031.1 - 0.0
28/10:30pm 11.7 4.0 10.1 90 0.8 W 41 57 22 31 1031.1 - 0.0
28/10:17pm 11.8 4.5 10.2 90 0.8 W 39 57 21 31 1031.1 - 0.0
28/10:00pm 11.7 4.0 10.1 90 0.8 W 41 57 22 31 1031.1 - 0.0
28/09:30pm 11.5 4.5 10.1 91 0.7 W 37 57 20 31 1031.0 - 0.0
28/09:00pm 11.4 4.0 9.7 89 0.9 W 39 59 21 32 1031.1 1031.2 0.0
28/08:33pm 11.5 4.0 9.6 88 1.0 W 39 57 21 31 1031.3 - 0.0
28/08:30pm 11.6 4.5 9.7 88 1.0 W 37 54 20 29 1031.4 - 0.0
28/08:08pm 11.8 5.5 9.7 87 1.1 W 33 52 18 28 1031.5 - 0.0
28/08:00pm 11.7 4.6 9.6 87 1.1 W 37 54 20 29 1031.4 - 0.0
28/07:45pm 12.1 4.6 9.5 84 1.3 W 39 61 21 33 1031.2 - 0.0
28/07:30pm 12.0 4.1 9.4 84 1.3 W 41 56 22 30 1031.2 - 0.0
28/07:14pm 12.0 5.7 9.6 85 1.2 W 33 54 18 29 1031.3 - 0.0
28/07:00pm 12.0 4.7 10.1 88 1.0 W 39 52 21 28 1031.0 - 0.0
28/06:30pm 11.5 4.9 10.1 91 0.7 W 35 57 19 31 1031.0 - 0.0
28/06:00pm 11.4 5.1 9.8 90 0.8 W 33 54 18 29 1030.8 1030.9 0.0
28/05:34pm 11.6 4.5 9.5 87 1.1 W 37 56 20 30 1030.5 - 0.0
28/05:30pm 11.3 2.9 9.0 86 1.2 W 43 56 23 30 1030.4 - 0.0
28/05:00pm 12.1 3.2 9.3 83 1.4 W 46 67 25 36 1030.0 - 0.0
28/04:30pm 12.0 4.5 9.4 84 1.3 W 39 61 21 33 1030.5 - 0.0
28/04:01pm 12.0 4.8 9.0 82 1.5 W 37 56 20 30 1030.3 - 0.0
28/04:00pm 12.1 4.5 9.1 82 1.5 W 39 56 21 30 1030.3 - 0.0
28/03:30pm 12.3 4.8 9.3 82 1.5 W 39 57 21 31 1030.0 - 0.0
28/03:00pm 12.4 3.7 8.5 77 1.9 W 44 65 24 35 1029.8 1029.9 0.0
28/02:30pm 12.3 4.3 9.1 81 1.6 W 41 59 22 32 1029.8 - 0.0
28/02:02pm 12.4 4.4 9.1 80 1.7 W 41 59 22 32 1029.9 - 0.0
28/02:00pm 12.4 4.0 9.1 80 1.7 W 43 59 23 32 1029.9 - 0.0
28/01:38pm 12.6 5.3 8.9 78 1.9 W 37 56 20 30 1030.1 - 0.0
28/01:30pm 12.4 5.0 8.5 77 1.9 W 37 54 20 29 1029.9 - 0.0
28/01:00pm 12.4 3.0 8.7 78 1.9 W 48 72 26 39 1029.9 - 0.0
28/12:30pm 12.5 3.2 9.0 79 1.8 W 48 67 26 36 1029.9 - 0.0
28/12:01pm 12.6 4.5 8.5 76 2.0 W 41 59 22 32 1030.5 - 0.0
28/12:00pm 12.6 4.5 8.7 77 1.9 W 41 57 22 31 1030.6 1030.7 0.0
28/11:31am 12.9 5.9 8.4 74 2.2 W 35 54 19 29 1031.0 - 0.0
28/11:30am 12.9 5.6 8.6 75 2.2 W 37 54 20 29 1031.0 - 0.0
28/11:06am 12.6 4.9 8.7 77 2.0 W 39 57 21 31 1031.0 - 0.0
28/11:00am 12.7 5.5 9.0 78 1.9 W 37 52 20 28 1031.2 - 0.0
28/10:30am 12.9 5.9 9.9 82 1.5 W 37 50 20 27 1031.0 - 0.0
28/10:00am 13.0 7.3 9.8 81 1.6 W 30 44 16 24 1031.0 - 0.0
28/09:31am 12.7 5.8 8.8 77 2.0 W 35 54 19 29 1030.8 - 0.0
28/09:30am 12.8 6.3 9.1 78 1.9 W 33 50 18 27 1030.8 - 0.0
28/09:05am 12.2 5.6 8.7 79 1.8 W 33 57 18 31 1030.5 - 0.0
28/09:00am 12.1 5.1 8.6 79 1.7 W 35 50 19 27 1030.4 1030.5 0.6
28/08:30am 11.8 3.1 8.6 81 1.6 W 44 56 24 30 1030.0 - 0.6
28/08:00am 11.7 2.3 8.6 81 1.5 W 48 69 26 37 1029.7 - 0.6
28/07:48am 11.7 1.9 8.6 81 1.5 W 50 69 27 37 1029.7 - 0.6
28/07:30am 11.6 1.8 8.8 83 1.4 W 50 63 27 34 1029.4 - 0.6
28/07:00am 11.5 3.9 9.1 85 1.2 W 39 57 21 31 1029.3 - 0.6
28/06:56am 11.4 4.5 9.0 85 1.2 W 35 54 19 29 1029.4 - 0.6
28/06:30am 11.4 3.9 9.3 87 1.1 W 39 56 21 30 1029.3 - 0.6
28/06:24am 11.4 4.2 9.3 87 1.1 W 37 56 20 30 1029.3 - 0.6
28/06:00am 11.5 4.1 9.8 89 0.9 W 39 54 21 29 1029.1 1029.2 0.6
28/05:30am 11.6 3.3 10.2 91 0.7 W 44 56 24 30 1028.9 - 0.6
28/05:00am 11.8 3.9 10.7 93 0.6 W 43 54 23 29 1028.7 - 0.6
28/04:30am 12.0 5.0 11.4 96 0.3 W 39 48 21 26 1028.7 - 0.6
28/04:00am 12.0 5.9 11.7 98 0.2 W 35 54 19 29 1028.6 - 0.6
28/03:30am 12.0 4.2 11.8 99 0.1 W 44 63 24 34 1028.6 - 0.6
28/03:00am 11.8 4.2 11.8 100 0.0 W 43 65 23 35 1028.8 1028.9 0.6
28/02:30am 11.7 6.0 11.7 100 0.0 WNW 33 59 18 32 1029.0 - 0.6
28/02:00am 11.6 4.7 11.6 100 0.0 W 39 61 21 33 1028.8 - 0.6
28/01:30am 11.5 3.8 11.5 100 0.0 WNW 43 65 23 35 1028.6 - 0.4
28/01:00am 11.3 3.9 11.1 99 0.1 WNW 41 61 22 33 1028.5 - 0.4
28/12:34am 11.3 4.2 11.0 98 0.2 WNW 39 57 21 31 1028.8 - 0.4
28/12:30am 11.2 3.7 10.9 98 0.2 WNW 41 57 22 31 1028.7 - 0.4
28/12:00am 11.5 4.4 11.0 97 0.3 WNW 39 61 21 33 1028.5 1028.6 0.4
 
Date/Time
EST
Temp
°C
App
Temp
°C
Dew
Point
Rel
Hum
%
Delta-T
°C
Wind Press
QNH
hPa
Press
MSL
hPa
Rain
since 9 am
mm
Dir
 
Spd
km/h
Gust
km/h
Spd
kts
Gust
kts
27/11:30pm 11.4 3.3 10.9 97 0.3 WNW 44 85 24 46 1028.3 - 0.4
27/11:26pm 11.5 3.5 11.0 97 0.3 WNW 44 85 24 46 1027.9 - 0.4
27/11:00pm 11.5 4.8 10.9 96 0.3 WNW 37 65 20 35 1028.7 - 0.4

Other Formats:

Comma delimited format used in spreadsheet applications
http://www.bom.gov.au/fwo/IDV60801/IDV60801.94893.axf

JavaScript Object Notation format (JSON) in row-major order
http://www.bom.gov.au/fwo/IDV60801/IDV60801.94893.json